createdAt,value
2022-10-12T00:01:12.102Z,2.50
2022-10-12T00:03:39.236Z,2.38
2022-10-12T00:06:15.008Z,2.67
2022-10-12T00:08:43.034Z,2.63
2022-10-12T00:11:13.989Z,2.85
2022-10-12T00:13:41.593Z,2.85
2022-10-12T00:16:10.618Z,2.80
2022-10-12T00:18:37.881Z,2.63
2022-10-12T00:21:15.506Z,3.00
2022-10-12T00:23:43.620Z,3.08
2022-10-12T00:26:19.800Z,2.83
2022-10-12T00:28:46.835Z,3.00
2022-10-12T00:31:16.960Z,2.63
2022-10-12T00:33:43.979Z,3.00
2022-10-12T00:36:24.352Z,2.83
2022-10-12T00:38:52.989Z,3.17
2022-10-12T00:41:22.767Z,2.92
2022-10-12T00:43:55.334Z,2.92
2022-10-12T00:46:41.054Z,2.75
2022-10-12T00:49:24.651Z,2.60
2022-10-12T00:51:58.936Z,2.78
2022-10-12T00:54:37.744Z,2.22
2022-10-12T00:57:05.990Z,2.50
2022-10-12T00:59:36.452Z,2.60
2022-10-12T01:02:03.014Z,2.35
2022-10-12T01:04:31.614Z,2.80
2022-10-12T01:06:59.001Z,2.83
2022-10-12T01:09:27.503Z,2.80
2022-10-12T01:11:54.043Z,2.30
2022-10-12T01:14:20.537Z,2.63
2022-10-12T01:16:54.548Z,2.40
2022-10-12T01:19:42.481Z,2.60
2022-10-12T01:22:15.658Z,3.20
2022-10-12T01:24:54.321Z,2.72
2022-10-12T01:27:39.539Z,2.55
2022-10-12T01:30:07.740Z,2.60
2022-10-12T01:33:14.370Z,2.80
2022-10-12T01:35:53.122Z,2.30
2022-10-12T01:38:49.662Z,2.53
2022-10-12T01:41:27.423Z,2.40
2022-10-12T01:43:54.026Z,2.17
2022-10-12T01:46:20.477Z,2.85
2022-10-12T01:48:50.174Z,2.22
2022-10-12T01:51:24.792Z,2.83
2022-10-12T01:54:00.834Z,3.10
2022-10-12T01:56:42.405Z,3.10
2022-10-12T01:59:36.303Z,2.45
2022-10-12T02:02:24.422Z,2.85
2022-10-12T02:05:38.623Z,3.08
2022-10-12T02:08:25.670Z,2.55
2022-10-12T02:11:06.145Z,2.97
2022-10-12T02:13:36.880Z,2.40
2022-10-12T02:16:07.761Z,2.60
2022-10-12T02:18:36.873Z,2.80
2022-10-12T02:21:04.410Z,2.10
2022-10-12T02:23:30.961Z,2.53
2022-10-12T02:26:00.104Z,2.88
2022-10-12T02:28:30.460Z,2.83
2022-10-12T02:31:20.802Z,2.10
2022-10-12T02:34:33.624Z,2.65
2022-10-12T02:37:09.772Z,2.80
2022-10-12T02:39:47.934Z,2.50
2022-10-12T02:42:23.607Z,2.58
2022-10-12T02:44:53.873Z,2.78
2022-10-12T02:47:24.583Z,2.58
2022-10-12T02:49:53.344Z,2.50
2022-10-12T02:52:19.897Z,2.78
2022-10-12T02:54:46.557Z,2.10
2022-10-12T02:57:13.053Z,2.60
2022-10-12T02:59:39.556Z,2.20
2022-10-12T03:02:06.027Z,2.70
2022-10-12T03:04:32.622Z,2.53
2022-10-12T03:06:59.088Z,2.20
2022-10-12T03:09:25.565Z,2.80
2022-10-12T03:11:52.019Z,2.67
2022-10-12T03:14:18.504Z,2.38
2022-10-12T03:16:48.266Z,2.38
2022-10-12T03:19:15.328Z,2.45
2022-10-12T03:21:41.833Z,2.50
2022-10-12T03:24:08.386Z,2.20
2022-10-12T03:26:34.989Z,2.65
2022-10-12T03:29:01.452Z,2.60
2022-10-12T03:31:27.931Z,2.45
2022-10-12T03:33:54.426Z,2.45
2022-10-12T03:36:20.922Z,2.08
2022-10-12T03:38:47.453Z,2.40
2022-10-12T03:41:13.895Z,2.55
2022-10-12T03:43:40.426Z,2.50
2022-10-12T03:46:06.865Z,2.50
2022-10-12T03:48:33.404Z,2.10
2022-10-12T03:51:00.053Z,2.50
2022-10-12T03:53:26.573Z,2.67
2022-10-12T03:55:53.000Z,2.80
2022-10-12T03:58:19.473Z,2.78
2022-10-12T04:00:46.164Z,3.28
2022-10-12T04:03:12.666Z,2.92
2022-10-12T04:05:40.050Z,2.80
2022-10-12T04:08:06.533Z,2.83
2022-10-12T04:10:33.101Z,2.50
2022-10-12T04:12:59.639Z,2.63
2022-10-12T04:15:26.200Z,2.55
2022-10-12T04:17:53.308Z,2.95
2022-10-12T04:20:19.766Z,2.67
2022-10-12T04:22:46.285Z,2.60
2022-10-12T04:25:12.797Z,2.75
2022-10-12T04:27:39.810Z,3.10
2022-10-12T04:30:07.092Z,2.70
2022-10-12T04:32:33.586Z,2.67
2022-10-12T04:35:00.077Z,3.00
2022-10-12T04:37:28.050Z,2.83
2022-10-12T04:39:54.698Z,3.05
2022-10-12T04:42:21.253Z,2.70
2022-10-12T04:44:47.739Z,2.80
2022-10-12T04:47:14.191Z,2.45
2022-10-12T04:49:40.805Z,2.40
2022-10-12T04:52:07.274Z,2.55
2022-10-12T04:54:33.918Z,2.90
2022-10-12T04:57:00.427Z,3.00
2022-10-12T04:59:27.656Z,2.92
2022-10-12T05:01:54.533Z,3.00
2022-10-12T05:04:21.272Z,3.80
2022-10-12T05:06:47.778Z,3.10
2022-10-12T05:09:16.866Z,3.47
2022-10-12T05:11:43.831Z,3.50
2022-10-12T05:14:10.482Z,3.50
2022-10-12T05:16:36.950Z,3.22
2022-10-12T05:19:03.391Z,3.40
2022-10-12T05:21:29.935Z,4.22
2022-10-12T05:23:56.402Z,3.63
2022-10-12T05:26:22.886Z,5.32
2022-10-12T05:28:49.522Z,5.15
2022-10-12T05:31:16.091Z,6.03
2022-10-12T05:33:42.537Z,7.15
2022-10-12T05:36:09.336Z,8.55
2022-10-12T05:38:35.800Z,26.73
2022-10-12T05:41:02.280Z,46.92
2022-10-12T05:43:28.880Z,42.58
2022-10-12T05:45:55.536Z,29.63
2022-10-12T05:48:22.127Z,19.35
2022-10-12T05:50:48.710Z,19.38
2022-10-12T05:53:15.218Z,16.35
2022-10-12T05:55:52.031Z,10.77
2022-10-12T05:58:18.544Z,8.68
2022-10-12T06:00:44.996Z,7.63
2022-10-12T06:03:11.463Z,7.38
2022-10-12T06:05:37.947Z,5.68
2022-10-12T06:08:04.839Z,4.63
2022-10-12T06:10:32.166Z,5.40
2022-10-12T06:12:58.777Z,4.95
2022-10-12T06:15:25.268Z,5.38
2022-10-12T06:17:51.747Z,5.72
2022-10-12T06:20:18.211Z,5.72
2022-10-12T06:22:44.711Z,6.00
2022-10-12T06:25:11.194Z,6.18
2022-10-12T06:27:37.683Z,7.18
2022-10-12T06:30:04.928Z,6.85
2022-10-12T06:32:31.387Z,6.85
2022-10-12T06:34:57.940Z,6.50
2022-10-12T06:37:48.626Z,6.30
2022-10-12T06:40:11.463Z,6.25
2022-10-12T06:42:38.109Z,5.10
2022-10-12T06:45:05.123Z,5.30
2022-10-12T06:47:31.578Z,5.18
2022-10-12T06:49:58.097Z,4.95
2022-10-12T06:52:24.615Z,4.38
2022-10-12T06:54:51.078Z,4.38
2022-10-12T06:57:17.532Z,4.47
2022-10-12T06:59:44.003Z,4.50
2022-10-12T07:02:13.361Z,4.88
2022-10-12T07:04:39.831Z,4.40
2022-10-12T07:07:06.404Z,4.80
2022-10-12T07:09:33.054Z,5.85
2022-10-12T07:11:59.565Z,6.70
2022-10-12T07:14:26.062Z,5.38
2022-10-12T07:16:55.247Z,5.30
2022-10-12T07:19:22.135Z,5.10
2022-10-12T07:21:48.705Z,4.60
2022-10-12T07:24:15.306Z,4.47
2022-10-12T07:26:41.796Z,4.40
2022-10-12T07:29:08.370Z,4.97
2022-10-12T07:31:34.869Z,4.30
2022-10-12T07:34:01.343Z,4.50
2022-10-12T07:36:47.262Z,4.13
2022-10-12T07:39:17.205Z,3.85
2022-10-12T07:41:43.868Z,4.20
2022-10-12T07:44:10.825Z,4.10
2022-10-12T07:46:37.648Z,3.97
2022-10-12T07:49:04.579Z,3.75
2022-10-12T07:51:31.388Z,3.45
2022-10-12T07:54:00.149Z,4.05
2022-10-12T07:56:27.058Z,3.00
2022-10-12T07:58:55.474Z,3.30
2022-10-12T08:01:24.688Z,3.03
2022-10-12T08:03:51.927Z,4.00
2022-10-12T08:06:21.437Z,3.72
2022-10-12T08:08:48.771Z,3.88
2022-10-12T08:11:16.226Z,3.80
2022-10-12T08:13:43.169Z,4.25
2022-10-12T08:16:14.990Z,3.90
2022-10-12T08:18:41.507Z,3.20
2022-10-12T08:21:09.388Z,3.20
2022-10-12T08:23:37.054Z,3.67
2022-10-12T08:26:04.525Z,3.80
2022-10-12T08:28:31.159Z,3.58
2022-10-12T08:30:58.129Z,3.20
2022-10-12T08:33:24.675Z,3.47
2022-10-12T08:35:51.317Z,3.30
2022-10-12T08:38:17.878Z,3.83
2022-10-12T08:41:10.958Z,3.00
2022-10-12T08:44:11.713Z,3.58
2022-10-12T08:46:38.436Z,4.03
2022-10-12T08:49:15.325Z,3.30
2022-10-12T08:51:52.697Z,3.70
2022-10-12T08:54:22.482Z,3.33
2022-10-12T08:56:51.472Z,4.20
2022-10-12T08:59:19.080Z,4.32
2022-10-12T09:01:54.514Z,3.85
2022-10-12T09:04:36.133Z,3.90
2022-10-12T09:07:15.343Z,4.70
2022-10-12T09:09:56.857Z,4.25
2022-10-12T09:12:45.110Z,4.05
2022-10-12T09:15:19.950Z,4.13
2022-10-12T09:17:53.281Z,3.55
2022-10-12T09:20:19.906Z,3.60
2022-10-12T09:22:56.518Z,3.67
2022-10-12T09:25:28.244Z,3.83
2022-10-12T09:28:06.741Z,3.60
2022-10-12T09:30:37.762Z,3.72
2022-10-12T09:33:16.119Z,3.40
2022-10-12T09:35:45.066Z,3.10
2022-10-12T09:38:12.168Z,3.55
2022-10-12T09:40:39.654Z,3.00
2022-10-12T09:43:07.464Z,3.30
2022-10-12T09:45:35.163Z,3.70
2022-10-12T09:48:15.796Z,3.35
2022-10-12T09:50:54.318Z,3.28
2022-10-12T09:53:33.705Z,3.03
2022-10-12T09:56:05.663Z,3.28
2022-10-12T09:58:41.574Z,2.92
2022-10-12T10:01:16.563Z,3.00
2022-10-12T10:03:45.323Z,3.25
2022-10-12T10:06:11.974Z,3.90
2022-10-12T10:08:44.859Z,3.28
2022-10-12T10:11:16.853Z,3.35
2022-10-12T10:16:14.832Z,2.90
2022-10-12T10:18:51.015Z,2.90
2022-10-12T10:21:39.559Z,2.83
2022-10-12T10:24:20.833Z,3.33
2022-10-12T10:27:03.547Z,3.20
2022-10-12T10:29:35.381Z,2.92
2022-10-12T10:32:24.226Z,3.33
2022-10-12T10:35:21.920Z,2.60
2022-10-12T10:37:51.472Z,2.58
2022-10-12T10:40:22.612Z,3.03
2022-10-12T10:42:55.546Z,2.73
2022-10-12T10:45:35.466Z,2.95
2022-10-12T10:48:16.601Z,3.00
2022-10-12T10:50:50.823Z,2.85
2022-10-12T10:53:23.978Z,2.88
2022-10-12T10:56:14.222Z,2.40
2022-10-12T10:58:47.658Z,2.20
2022-10-12T11:01:35.305Z,2.75
2022-10-12T11:04:12.127Z,2.30
2022-10-12T11:06:44.686Z,2.38
2022-10-12T11:09:15.841Z,2.80
2022-10-12T11:11:44.278Z,2.70
2022-10-12T11:14:20.667Z,2.63
2022-10-12T11:17:01.040Z,2.22
2022-10-12T11:19:39.427Z,2.30
2022-10-12T11:22:15.342Z,3.03
2022-10-12T11:24:54.479Z,2.22
2022-10-12T11:27:39.493Z,2.47
2022-10-12T11:30:26.413Z,2.45
2022-10-12T11:33:22.267Z,2.83
2022-10-12T11:35:49.708Z,2.60
2022-10-12T11:38:52.455Z,2.45
2022-10-12T11:41:36.100Z,2.35
2022-10-12T11:44:20.791Z,2.42
2022-10-12T11:46:54.321Z,2.65
2022-10-12T11:49:29.190Z,2.50
2022-10-12T11:51:59.645Z,2.30
2022-10-12T11:54:31.780Z,2.67
2022-10-12T11:57:05.936Z,2.47
2022-10-12T11:59:59.123Z,2.15
2022-10-12T12:02:42.889Z,2.50
2022-10-12T12:05:16.729Z,2.85
2022-10-12T12:07:51.024Z,2.30
2022-10-12T12:10:26.590Z,2.85
2022-10-12T12:13:14.952Z,2.00
2022-10-12T12:15:47.436Z,2.50
2022-10-12T12:18:44.380Z,2.45
2022-10-12T12:21:11.127Z,2.25
2022-10-12T12:23:43.706Z,2.67
2022-10-12T12:26:15.593Z,2.45
2022-10-12T12:28:51.831Z,2.03
2022-10-12T12:31:27.700Z,2.30
2022-10-12T12:34:17.268Z,2.70
2022-10-12T12:36:46.402Z,2.10
2022-10-12T12:39:27.470Z,2.70
2022-10-12T12:42:02.292Z,2.22
2022-10-12T12:44:36.682Z,2.30
2022-10-12T12:47:08.604Z,2.40
2022-10-12T12:49:51.692Z,2.20
2022-10-12T12:52:24.232Z,2.42
2022-10-12T12:55:18.550Z,2.13
2022-10-12T12:58:03.680Z,2.10
2022-10-12T13:00:38.260Z,2.35
2022-10-12T13:03:31.064Z,2.42
2022-10-12T13:06:25.122Z,2.53
2022-10-12T13:09:21.353Z,1.83
2022-10-12T13:12:26.002Z,2.28
2022-10-12T13:15:18.747Z,2.47
2022-10-12T13:18:23.148Z,1.90
2022-10-12T13:20:55.943Z,2.00
2022-10-12T13:23:26.166Z,2.97
2022-10-12T13:25:57.449Z,2.25
2022-10-12T13:28:31.443Z,2.65
2022-10-12T13:31:04.281Z,2.25
2022-10-12T13:33:39.054Z,2.60
2022-10-12T13:36:11.108Z,2.10
2022-10-12T13:38:40.448Z,2.55
2022-10-12T13:41:16.648Z,1.90
2022-10-12T13:43:50.244Z,2.40
2022-10-12T13:46:35.527Z,2.50
2022-10-12T13:49:03.713Z,2.40
2022-10-12T13:51:31.414Z,2.30
2022-10-12T13:53:58.202Z,2.35
2022-10-12T13:56:28.166Z,2.10
2022-10-12T13:59:00.333Z,2.47
2022-10-12T14:01:27.058Z,2.22
2022-10-12T14:04:02.993Z,2.20
2022-10-12T14:06:35.308Z,2.10
2022-10-12T14:09:18.276Z,2.28
2022-10-12T14:11:46.590Z,2.38
2022-10-12T14:14:35.141Z,2.17
2022-10-12T14:17:02.279Z,2.42
2022-10-12T14:19:45.340Z,2.35
2022-10-12T14:22:18.633Z,2.22
2022-10-12T14:24:45.168Z,2.67
2022-10-12T14:27:24.505Z,2.42
2022-10-12T14:29:56.705Z,2.03
2022-10-12T14:32:23.130Z,1.80
2022-10-12T14:35:03.355Z,2.58
2022-10-12T14:37:31.029Z,3.25
2022-10-12T14:40:00.908Z,3.20
2022-10-12T14:42:34.107Z,3.17
2022-10-12T14:45:02.098Z,3.40
2022-10-12T14:47:37.486Z,2.95
2022-10-12T14:50:08.260Z,2.80
2022-10-12T14:52:45.026Z,2.55
2022-10-12T14:55:32.312Z,2.40
2022-10-12T14:57:59.768Z,2.80
2022-10-12T15:00:32.054Z,2.58
2022-10-12T15:02:59.249Z,2.92
2022-10-12T15:05:29.027Z,2.10
2022-10-12T15:07:55.482Z,2.17
2022-10-12T15:10:23.764Z,2.50
2022-10-12T15:12:51.440Z,2.20
2022-10-12T15:15:39.467Z,2.60
2022-10-12T15:18:06.607Z,2.22
2022-10-12T15:20:36.402Z,2.28
2022-10-12T15:23:03.221Z,2.33
2022-10-12T15:25:35.569Z,2.28
2022-10-12T15:28:03.027Z,2.42
2022-10-12T15:30:29.926Z,2.97
2022-10-12T15:32:56.433Z,2.67
2022-10-12T15:35:25.798Z,2.95
2022-10-12T15:37:52.625Z,2.72
2022-10-12T15:40:20.584Z,2.55
2022-10-12T15:42:47.469Z,2.85
2022-10-12T15:45:19.399Z,2.70
2022-10-12T15:50:18.018Z,2.72
2022-10-12T15:52:45.055Z,3.13
2022-10-12T15:55:16.211Z,2.65
2022-10-12T15:57:43.027Z,3.03
2022-10-12T16:00:11.096Z,4.38
2022-10-12T16:02:37.801Z,5.78
2022-10-12T16:05:06.727Z,5.38
2022-10-12T16:07:33.183Z,4.35
2022-10-12T16:09:59.671Z,4.75
2022-10-12T16:12:26.135Z,4.10
2022-10-12T16:14:52.622Z,3.58
2022-10-12T16:17:19.060Z,3.10
2022-10-12T16:19:45.747Z,3.20
2022-10-12T16:22:12.219Z,3.08
2022-10-12T16:24:38.720Z,3.45
2022-10-12T16:27:05.242Z,3.60
2022-10-12T16:29:31.741Z,3.00
2022-10-12T16:31:58.208Z,3.47
2022-10-12T16:34:24.681Z,3.28
2022-10-12T16:36:53.151Z,3.15
2022-10-12T16:39:19.694Z,3.60
2022-10-12T16:41:46.179Z,3.65
2022-10-12T16:44:12.673Z,3.70
2022-10-12T16:46:39.420Z,5.00
2022-10-12T16:49:05.908Z,8.18
2022-10-12T16:51:32.455Z,8.98
2022-10-12T16:53:59.281Z,8.73
2022-10-12T16:56:25.810Z,9.93
2022-10-12T16:58:52.620Z,9.73
2022-10-12T17:01:19.178Z,12.15
2022-10-12T17:03:45.671Z,13.60
2022-10-12T17:06:12.209Z,11.32
2022-10-12T17:08:41.739Z,10.75
2022-10-12T17:11:10.864Z,10.15
2022-10-12T17:13:38.457Z,10.15
2022-10-12T17:16:25.684Z,9.45
2022-10-12T17:18:56.804Z,8.48
2022-10-12T17:21:25.625Z,9.23
2022-10-12T17:23:55.196Z,11.15
2022-10-12T17:26:21.750Z,20.48
2022-10-12T17:28:48.287Z,25.40
2022-10-12T17:31:14.942Z,20.10
2022-10-12T17:33:41.422Z,18.10
2022-10-12T17:36:10.603Z,13.68
2022-10-12T17:38:37.370Z,10.80
2022-10-12T17:41:05.140Z,7.25
2022-10-12T17:43:32.071Z,7.30
2022-10-12T17:45:59.072Z,7.45
2022-10-12T17:48:25.597Z,6.97
2022-10-12T17:50:52.102Z,7.38
2022-10-12T17:53:18.638Z,8.40
2022-10-12T17:55:48.621Z,10.05
2022-10-12T17:58:15.741Z,10.20
2022-10-12T18:00:42.365Z,12.73
2022-10-12T18:03:08.920Z,11.10
2022-10-12T18:05:35.439Z,12.73
2022-10-12T18:08:01.994Z,8.40
2022-10-12T18:10:28.753Z,7.90
2022-10-12T18:12:55.451Z,7.75
2022-10-12T18:15:23.102Z,7.72
2022-10-12T18:17:50.588Z,8.50
2022-10-12T18:20:18.695Z,9.75
2022-10-12T18:22:45.244Z,15.80
2022-10-12T18:25:11.781Z,17.90
2022-10-12T18:27:38.321Z,17.58
2022-10-12T18:30:05.363Z,18.30
2022-10-12T18:32:31.868Z,18.33
2022-10-12T18:34:58.462Z,16.63
2022-10-12T18:37:25.032Z,12.75
2022-10-12T18:39:51.568Z,14.10
2022-10-12T18:42:18.326Z,15.55
2022-10-12T18:44:45.134Z,14.90
2022-10-12T18:47:11.618Z,16.25
2022-10-12T18:49:38.288Z,15.65
2022-10-12T18:52:05.101Z,14.50
2022-10-12T18:54:31.692Z,13.65
2022-10-12T18:56:58.182Z,11.23
2022-10-12T18:59:24.692Z,10.85
2022-10-12T19:01:51.371Z,10.82
2022-10-12T19:04:18.009Z,9.95
2022-10-12T19:06:45.089Z,9.63
2022-10-12T19:09:13.693Z,9.02
2022-10-12T19:11:40.716Z,9.63
2022-10-12T19:14:15.812Z,8.70
2022-10-12T19:16:43.887Z,7.97
2022-10-12T19:19:20.766Z,7.20
2022-10-12T19:21:49.424Z,7.07
2022-10-12T19:24:16.268Z,7.43
2022-10-12T19:26:43.755Z,7.03
2022-10-12T19:29:12.919Z,8.02
2022-10-12T19:31:44.399Z,7.80
2022-10-12T19:34:14.255Z,8.13
2022-10-12T19:36:41.836Z,9.02
2022-10-12T19:39:12.307Z,8.23
2022-10-12T19:41:42.410Z,9.32
2022-10-12T19:44:11.265Z,9.02
2022-10-12T19:46:38.990Z,11.07
2022-10-12T19:49:05.704Z,12.38
2022-10-12T19:51:32.861Z,12.82
2022-10-12T19:54:01.825Z,12.85
2022-10-12T19:56:28.689Z,12.88
2022-10-12T19:58:59.186Z,16.05
2022-10-12T20:01:28.501Z,19.92
2022-10-12T20:03:55.913Z,17.15
2022-10-12T20:06:25.250Z,16.40
2022-10-12T20:08:53.753Z,16.45
2022-10-12T20:11:24.509Z,18.10
2022-10-12T20:13:52.159Z,16.98
2022-10-12T20:16:20.099Z,15.35
2022-10-12T20:18:46.717Z,11.88
2022-10-12T20:21:16.281Z,11.27
2022-10-12T20:23:43.631Z,10.50
2022-10-12T20:26:16.971Z,10.38
2022-10-12T20:28:49.387Z,10.73
2022-10-12T20:31:17.486Z,11.65
2022-10-12T20:33:44.264Z,11.90
2022-10-12T20:36:18.489Z,11.88
2022-10-12T20:38:44.962Z,12.48
2022-10-12T20:41:13.285Z,11.40
2022-10-12T20:43:40.782Z,11.75
2022-10-12T20:46:10.882Z,11.93
2022-10-12T20:48:39.660Z,11.43
2022-10-12T20:51:10.516Z,10.55
2022-10-12T20:53:37.902Z,10.00
2022-10-12T20:56:06.299Z,10.38
2022-10-12T20:58:32.813Z,9.45
2022-10-12T21:01:07.588Z,10.88
2022-10-12T21:03:34.905Z,9.82
2022-10-12T21:06:03.663Z,10.93
2022-10-12T21:08:30.374Z,9.60
2022-10-12T21:10:57.154Z,10.80
2022-10-12T21:13:23.687Z,10.55
2022-10-12T21:15:54.234Z,9.75
2022-10-12T21:18:21.693Z,10.18
2022-10-12T21:20:59.203Z,9.98
2022-10-12T21:23:26.156Z,10.30
2022-10-12T21:25:53.223Z,8.70
2022-10-12T21:28:20.703Z,8.50
2022-10-12T21:30:47.633Z,9.05
2022-10-12T21:33:16.646Z,10.00
2022-10-12T21:35:43.594Z,9.55
2022-10-12T21:38:10.600Z,9.65
2022-10-12T21:40:40.541Z,9.93
2022-10-12T21:43:06.993Z,9.55
2022-10-12T21:45:34.348Z,10.23
2022-10-12T21:48:00.957Z,8.95
2022-10-12T21:50:28.391Z,8.93
2022-10-12T21:53:00.067Z,9.18
2022-10-12T21:57:53.208Z,16.73
2022-10-12T22:00:19.709Z,17.33
2022-10-12T22:02:46.143Z,15.10
2022-10-12T22:05:12.659Z,14.68
2022-10-12T22:07:41.800Z,10.45
2022-10-12T22:10:10.742Z,9.60
2022-10-12T22:12:38.221Z,9.00
2022-10-12T22:15:05.463Z,8.95
2022-10-12T22:17:31.905Z,8.90
2022-10-12T22:19:58.378Z,8.98
2022-10-12T22:22:24.873Z,9.45
2022-10-12T22:24:51.375Z,9.90
2022-10-12T22:27:20.391Z,10.45
2022-10-12T22:29:46.891Z,10.30
2022-10-12T22:32:13.358Z,11.05
2022-10-12T22:34:39.845Z,10.48
2022-10-12T22:37:06.321Z,9.80
2022-10-12T22:39:32.797Z,10.23
2022-10-12T22:41:59.237Z,9.98
2022-10-12T22:44:25.933Z,9.57
2022-10-12T22:46:52.371Z,10.20
2022-10-12T22:49:18.882Z,10.10
2022-10-12T22:51:45.493Z,9.88
2022-10-12T22:54:13.343Z,10.13
2022-10-12T22:56:40.645Z,10.95
2022-10-12T22:59:07.245Z,10.75
2022-10-12T23:01:35.071Z,11.10
2022-10-12T23:04:01.592Z,11.80
2022-10-12T23:06:28.102Z,10.63
2022-10-12T23:08:54.649Z,10.60
2022-10-12T23:11:24.103Z,10.40
2022-10-12T23:13:51.033Z,10.60
2022-10-12T23:16:29.361Z,9.77
2022-10-12T23:19:00.925Z,10.55
2022-10-12T23:21:29.444Z,10.70
2022-10-12T23:23:56.428Z,9.20
2022-10-12T23:26:25.133Z,10.68
2022-10-12T23:28:52.874Z,10.15
2022-10-12T23:31:22.004Z,10.57
2022-10-12T23:33:48.855Z,10.60
2022-10-12T23:36:17.491Z,10.60
2022-10-12T23:38:44.947Z,10.85
2022-10-12T23:41:14.785Z,11.27
2022-10-12T23:43:41.607Z,10.38
2022-10-12T23:46:10.187Z,10.40
2022-10-12T23:48:36.709Z,11.18
2022-10-12T23:51:06.873Z,11.23
2022-10-12T23:53:33.713Z,10.27
2022-10-12T23:56:00.232Z,11.40
2022-10-12T23:58:26.666Z,11.93
